Time;durP1;ratioP1;P1;durP2;ratioP2;P2;SDS_P1;SDS_P2;PMS_P1;PMS_P2;Temp;Humidity;BMP_temperature;BMP_pressure;BME280_temperature;BME280_humidity;BME280_pressure;Samples;Min_cycle;Max_cycle;Signal;HPM_P1;HPM_P2
2022/03/04 00:01:16;;;;;;;11.73;5.03;;;1.70;99.90;;;;;;5007369;28;20435;-83
2022/03/04 00:03:42;;;;;;;9.38;5.43;;;1.70;99.90;;;;;;4965230;28;20050;-83
2022/03/04 00:06:08;;;;;;;9.10;4.65;;;1.70;99.90;;;;;;4986613;28;20064;-83
2022/03/04 00:08:33;;;;;;;15.88;5.30;;;2.40;99.90;;;;;;4974619;28;20038;-84
2022/03/04 00:10:59;;;;;;;11.68;5.13;;;2.20;99.90;;;;;;5007007;28;20042;-84
2022/03/04 00:13:25;;;;;;;8.85;5.72;;;3.00;99.90;;;;;;5014288;28;20131;-83
2022/03/04 00:15:51;;;;;;;7.50;4.82;;;1.60;99.90;;;;;;5013688;28;20436;-84
2022/03/04 00:18:16;;;;;;;7.75;4.65;;;2.10;99.90;;;;;;4953428;28;20073;-83
2022/03/04 00:20:42;;;;;;;7.05;4.78;;;1.60;99.90;;;;;;4992232;28;20048;-83
2022/03/04 00:23:08;;;;;;;13.90;5.63;;;2.70;99.90;;;;;;4994949;28;20038;-83
2022/03/04 00:25:34;;;;;;;10.52;6.68;;;1.50;99.90;;;;;;5002248;28;20049;-83
2022/03/04 00:28:00;;;;;;;14.35;4.20;;;2.30;99.90;;;;;;5000933;28;20092;-83
2022/03/04 00:30:26;;;;;;;11.68;5.53;;;1.50;99.90;;;;;;5010082;28;20049;-83
2022/03/04 00:32:52;;;;;;;8.30;6.53;;;1.50;99.90;;;;;;5022193;28;20087;-84
2022/03/04 00:35:18;;;;;;;7.28;4.05;;;1.40;99.90;;;;;;4990276;28;20045;-83
2022/03/04 00:37:44;;;;;;;15.30;6.07;;;1.50;99.90;;;;;;4977435;28;20049;-83
2022/03/04 00:40:10;;;;;;;7.55;4.00;;;2.20;99.90;;;;;;5000222;28;20645;-84
2022/03/04 00:42:36;;;;;;;5.95;4.20;;;1.30;99.90;;;;;;5007608;28;20092;-83
2022/03/04 00:45:03;;;;;;;6.37;4.67;;;1.30;99.90;;;;;;4973365;28;20393;-83
2022/03/04 00:47:29;;;;;;;9.25;4.53;;;1.30;99.90;;;;;;4986661;28;20526;-85
2022/03/04 00:49:54;;;;;;;9.80;4.95;;;1.90;99.90;;;;;;5010992;28;20049;-84
2022/03/04 00:52:20;;;;;;;8.23;3.63;;;1.30;99.90;;;;;;4975951;28;20396;-83
2022/03/04 00:54:46;;;;;;;8.13;4.15;;;2.50;99.90;;;;;;5010853;28;20041;-83
2022/03/04 00:57:12;;;;;;;9.60;4.63;;;2.20;99.90;;;;;;4959314;28;20227;-83
2022/03/04 00:59:37;;;;;;;5.00;4.00;;;2.50;99.90;;;;;;4997901;28;20057;-83
2022/03/04 01:02:04;;;;;;;13.43;5.40;;;2.40;99.90;;;;;;5012694;28;20562;-84
2022/03/04 01:04:30;;;;;;;12.65;5.32;;;1.20;99.90;;;;;;5026788;28;20054;-83
2022/03/04 01:06:56;;;;;;;7.55;4.93;;;2.40;99.90;;;;;;4981087;28;20477;-86
2022/03/04 01:09:21;;;;;;;8.23;4.07;;;1.10;99.90;;;;;;4996352;28;20052;-83
2022/03/04 01:11:50;;;;;;;10.13;6.18;;;1.10;99.90;;;;;;4975942;28;20077;-83
2022/03/04 01:14:15;;;;;;;10.07;4.95;;;1.10;99.90;;;;;;4988335;28;20042;-83
2022/03/04 01:16:41;;;;;;;11.82;4.63;;;1.00;99.90;;;;;;5000096;28;20040;-83
2022/03/04 01:19:07;;;;;;;10.70;5.65;;;1.50;99.90;;;;;;5009584;28;20053;-83
2022/03/04 01:21:33;;;;;;;10.02;6.13;;;2.20;99.90;;;;;;5008391;28;20484;-83
2022/03/04 01:23:59;;;;;;;7.53;5.43;;;2.30;99.90;;;;;;4992418;28;20548;-84
2022/03/04 01:26:24;;;;;;;6.57;3.58;;;2.20;99.90;;;;;;4994432;28;20473;-83
2022/03/04 01:28:50;;;;;;;10.48;6.32;;;0.90;99.90;;;;;;4997638;28;20041;-83
2022/03/04 01:31:16;;;;;;;15.02;6.25;;;0.90;99.90;;;;;;4981837;28;20209;-84
2022/03/04 01:33:42;;;;;;;9.02;4.85;;;2.20;99.90;;;;;;4998296;28;20053;-84
2022/03/04 01:36:08;;;;;;;9.93;5.30;;;2.00;99.90;;;;;;5006616;28;20045;-84
2022/03/04 01:38:34;;;;;;;18.05;6.50;;;2.00;99.90;;;;;;5018231;28;20148;-83
2022/03/04 01:41:00;;;;;;;6.05;4.25;;;0.90;99.90;;;;;;5001090;28;20521;-85
2022/03/04 01:43:25;;;;;;;12.48;5.60;;;2.20;99.90;;;;;;4996924;28;20128;-83
2022/03/04 01:45:52;;;;;;;11.25;6.85;;;0.90;99.90;;;;;;4997881;28;20050;-84
2022/03/04 01:48:20;;;;;;;9.68;4.78;;;-0.30;99.90;;;;;;4990887;28;20068;-84
2022/03/04 01:50:50;;;;;;;10.68;4.68;;;0.80;99.90;;;;;;5031445;28;20124;-83
2022/03/04 01:53:17;;;;;;;13.48;5.43;;;1.80;99.90;;;;;;5009808;28;20046;-84
2022/03/04 01:55:43;;;;;;;8.52;5.60;;;0.60;99.90;;;;;;4990053;28;20091;-84
2022/03/04 01:58:08;;;;;;;13.35;5.78;;;0.60;99.90;;;;;;5007746;28;20125;-83
2022/03/04 02:00:34;;;;;;;10.48;6.68;;;0.60;99.90;;;;;;4979901;28;20056;-84
2022/03/04 02:03:00;;;;;;;8.82;4.82;;;0.60;99.90;;;;;;4998399;28;20041;-84
2022/03/04 02:05:27;;;;;;;17.65;5.85;;;0.70;99.90;;;;;;5007591;28;20129;-83
2022/03/04 02:07:53;;;;;;;11.50;4.45;;;0.50;99.90;;;;;;5005178;28;20127;-84
2022/03/04 02:10:18;;;;;;;7.72;3.90;;;1.60;99.90;;;;;;5006218;28;20074;-84
2022/03/04 02:12:44;;;;;;;11.73;5.55;;;0.50;99.90;;;;;;4989321;28;20124;-83
2022/03/04 02:15:10;;;;;;;11.43;5.15;;;1.50;99.90;;;;;;5005263;28;20045;-84
2022/03/04 02:17:36;;;;;;;12.13;3.60;;;1.00;99.90;;;;;;4985279;28;20084;-83
2022/03/04 02:20:04;;;;;;;15.53;5.67;;;1.40;99.90;;;;;;4983525;28;20069;-85
2022/03/04 02:22:31;;;;;;;9.10;5.18;;;0.40;99.90;;;;;;4980399;28;20053;-83
2022/03/04 02:24:57;;;;;;;9.95;6.32;;;0.90;99.90;;;;;;4995001;28;20133;-83
2022/03/04 02:27:23;;;;;;;15.52;5.63;;;1.40;99.90;;;;;;5015176;28;20233;-83
2022/03/04 02:29:48;;;;;;;12.05;4.88;;;0.40;99.90;;;;;;4999581;28;20045;-83
2022/03/04 02:32:14;;;;;;;11.55;6.32;;;0.60;99.90;;;;;;4982588;28;20496;-83
2022/03/04 02:34:40;;;;;;;11.77;6.40;;;1.70;99.90;;;;;;4981407;28;20404;-84
2022/03/04 02:37:07;;;;;;;7.40;4.88;;;0.20;99.90;;;;;;4982362;28;20120;-86
2022/03/04 02:39:32;;;;;;;9.02;4.63;;;1.40;99.90;;;;;;5000837;28;20050;-83
2022/03/04 02:41:58;;;;;;;13.98;5.15;;;0.20;99.90;;;;;;5013473;28;20545;-83
2022/03/04 02:44:24;;;;;;;12.90;5.78;;;0.50;99.90;;;;;;4998476;28;20047;-83
2022/03/04 02:46:50;;;;;;;14.27;5.85;;;0.10;99.90;;;;;;5009817;28;20046;-83
2022/03/04 02:49:15;;;;;;;7.00;4.30;;;0.10;99.90;;;;;;4966229;28;20054;-84
2022/03/04 02:51:41;;;;;;;6.78;4.07;;;0.50;99.90;;;;;;4984266;28;20048;-83
2022/03/04 02:54:07;;;;;;;7.80;5.13;;;0.00;99.90;;;;;;5016274;28;20050;-85
2022/03/04 02:56:33;;;;;;;8.60;4.95;;;0.50;99.90;;;;;;4998728;28;20049;-83
2022/03/04 02:58:59;;;;;;;10.55;6.40;;;0.00;99.90;;;;;;4979648;28;20507;-83
2022/03/04 03:01:25;;;;;;;7.53;4.97;;;1.50;99.90;;;;;;4974324;28;20136;-83
2022/03/04 03:03:51;;;;;;;9.40;5.78;;;0.50;99.90;;;;;;4981154;28;20052;-83
2022/03/04 03:06:17;;;;;;;5.15;3.95;;;-0.10;99.90;;;;;;4980528;28;20475;-83
2022/03/04 03:08:42;;;;;;;9.50;5.55;;;0.50;99.90;;;;;;5016096;28;20046;-83
2022/03/04 03:11:08;;;;;;;9.27;6.00;;;-0.20;99.90;;;;;;5008826;28;20074;-85
2022/03/04 03:13:34;;;;;;;12.60;5.40;;;-0.20;99.90;;;;;;4980052;28;20038;-84
2022/03/04 03:16:00;;;;;;;12.75;5.13;;;-0.30;99.90;;;;;;4976779;28;20481;-83
2022/03/04 03:18:26;;;;;;;10.18;5.00;;;-0.30;99.90;;;;;;5010958;28;20049;-83
2022/03/04 03:20:51;;;;;;;14.73;5.10;;;-0.40;99.90;;;;;;5015787;28;20091;-83
2022/03/04 03:23:18;;;;;;;8.23;4.78;;;0.70;99.90;;;;;;4963427;28;20077;-84
2022/03/04 03:25:43;;;;;;;9.47;4.03;;;0.00;99.90;;;;;;4986714;28;20504;-84
2022/03/04 03:28:09;;;;;;;13.32;5.05;;;0.00;99.90;;;;;;5024367;28;20301;-83
2022/03/04 03:30:35;;;;;;;7.43;4.65;;;-0.40;99.90;;;;;;4984528;28;20053;-83
2022/03/04 03:33:01;;;;;;;11.77;5.00;;;-0.50;99.90;;;;;;4986010;28;20507;-84
2022/03/04 03:35:27;;;;;;;13.15;5.88;;;0.30;99.90;;;;;;4947812;28;20377;-84
2022/03/04 03:37:53;;;;;;;11.48;6.07;;;-0.60;99.90;;;;;;4979433;28;20088;-83
2022/03/04 03:40:18;;;;;;;12.40;5.95;;;-0.60;99.90;;;;;;4963795;28;20112;-84
2022/03/04 03:42:44;;;;;;;9.30;4.47;;;0.30;99.90;;;;;;4997759;28;20542;-83
2022/03/04 03:45:11;;;;;;;7.18;4.25;;;-0.70;99.90;;;;;;4947748;28;20045;-83
2022/03/04 03:47:38;;;;;;;9.85;6.38;;;-0.70;99.90;;;;;;4984023;28;20050;-83
2022/03/04 03:50:05;;;;;;;;;;;-0.50;99.90;;;;;;4993242;28;20515;-83
2022/03/04 03:52:31;;;;;;;9.98;5.72;;;-0.70;99.90;;;;;;4995173;28;19921;-83
2022/03/04 03:54:57;;;;;;;9.13;7.05;;;-0.80;99.90;;;;;;4973760;28;20397;-83
2022/03/04 03:57:23;;;;;;;6.63;4.97;;;0.10;99.90;;;;;;4963424;28;20131;-83
2022/03/04 03:59:48;;;;;;;6.55;4.05;;;0.50;99.90;;;;;;4960479;28;20327;-83
2022/03/04 04:02:14;;;;;;;12.50;5.85;;;0.40;99.90;;;;;;4960362;28;20464;-84
2022/03/04 04:04:41;;;;;;;12.23;5.45;;;-0.50;99.90;;;;;;4975075;28;20046;-83
2022/03/04 04:07:11;;;;;;;10.13;4.93;;;-0.70;99.90;;;;;;4967287;28;20072;-83
2022/03/04 04:09:38;;;;;;;10.13;5.30;;;0.30;99.90;;;;;;4977957;28;20048;-84
2022/03/04 04:12:04;;;;;;;12.40;6.55;;;-0.80;99.90;;;;;;4995818;28;20065;-83
2022/03/04 04:14:31;;;;;;;9.18;4.95;;;-0.80;99.90;;;;;;4972695;28;20045;-84
2022/03/04 04:16:57;;;;;;;10.02;5.28;;;-0.90;99.90;;;;;;4979934;28;20058;-83
2022/03/04 04:19:23;;;;;;;5.72;4.82;;;-0.90;99.90;;;;;;4994673;28;20069;-84
2022/03/04 04:21:51;;;;;;;8.23;5.80;;;0.00;99.90;;;;;;4995657;28;20072;-84
2022/03/04 04:24:17;;;;;;;6.75;5.07;;;0.40;99.90;;;;;;4979162;28;20128;-83
2022/03/04 04:26:44;;;;;;;13.73;6.95;;;0.50;99.90;;;;;;4994733;28;20046;-84
2022/03/04 04:29:10;;;;;;;18.40;6.28;;;-0.80;99.90;;;;;;5012152;28;20060;-84
2022/03/04 04:31:35;;;;;;;7.97;6.70;;;-0.80;99.90;;;;;;5000555;28;20049;-84
2022/03/04 04:34:02;;;;;;;13.13;6.63;;;0.20;99.90;;;;;;4978801;28;20041;-84
2022/03/04 04:36:28;;;;;;;;;;;-0.20;99.90;;;;;;5017718;28;20108;-84
2022/03/04 04:38:55;;;;;;;14.02;4.72;;;-0.90;99.90;;;;;;4986334;28;19925;-83
2022/03/04 04:41:21;;;;;;;10.32;6.22;;;0.60;99.90;;;;;;5014069;28;20053;-86
2022/03/04 04:43:50;;;;;;;8.30;5.93;;;-0.70;99.90;;;;;;4988819;28;20057;-84
2022/03/04 04:46:17;;;;;;;17.55;5.97;;;-0.90;99.90;;;;;;5011267;28;20107;-84
2022/03/04 04:48:43;;;;;;;;;;;-0.90;99.90;;;;;;4991451;28;20387;-84
2022/03/04 04:51:09;;;;;;;10.13;5.00;;;-0.90;99.90;;;;;;5010409;28;20432;-84
2022/03/04 04:53:35;;;;;;;9.87;6.33;;;-0.90;99.90;;;;;;4995417;28;20041;-84
2022/03/04 04:56:02;;;;;;;9.40;5.05;;;0.20;99.90;;;;;;5014619;28;20102;-84
2022/03/04 04:58:27;;;;;;;12.07;4.97;;;-0.90;99.90;;;;;;4963997;28;20050;-84
2022/03/04 05:00:53;;;;;;;9.10;6.10;;;-0.20;99.90;;;;;;4982339;28;20049;-84
2022/03/04 05:03:21;;;;;;;10.65;6.45;;;-0.90;99.90;;;;;;4980136;28;20480;-83
2022/03/04 05:05:50;;;;;;;11.40;6.25;;;0.20;99.90;;;;;;5011958;28;20037;-83
2022/03/04 05:08:16;;;;;;;19.25;7.63;;;-0.80;99.90;;;;;;5010301;28;20041;-84
2022/03/04 05:10:42;;;;;;;7.97;6.35;;;-0.80;99.90;;;;;;5002604;28;20048;-84
2022/03/04 05:13:08;;;;;;;16.15;6.63;;;-0.80;99.90;;;;;;5012574;28;20049;-84
2022/03/04 05:15:34;;;;;;;13.25;5.95;;;0.10;99.90;;;;;;4995315;28;20045;-84
2022/03/04 05:17:59;;;;;;;16.40;6.95;;;0.10;99.90;;;;;;4990976;28;20037;-83
2022/03/04 05:20:25;;;;;;;17.75;6.65;;;-0.10;99.90;;;;;;5014187;28;20060;-85
2022/03/04 05:22:51;;;;;;;9.10;5.93;;;-0.80;99.90;;;;;;4987538;28;20037;-83
2022/03/04 05:25:17;;;;;;;17.40;6.80;;;0.20;99.90;;;;;;4972359;28;20423;-83
2022/03/04 05:27:42;;;;;;;11.30;5.70;;;0.20;99.90;;;;;;4983604;28;20511;-83
2022/03/04 05:30:08;;;;;;;17.58;6.15;;;0.50;99.90;;;;;;4995604;28;20120;-84
2022/03/04 05:32:34;;;;;;;20.77;8.93;;;-0.70;99.90;;;;;;4995742;28;20089;-84
2022/03/04 05:35:00;;;;;;;14.35;6.72;;;-0.70;99.90;;;;;;4975454;28;20100;-85
2022/03/04 05:37:26;;;;;;;9.90;5.95;;;-0.70;99.90;;;;;;4994967;28;20041;-84
2022/03/04 05:39:52;;;;;;;15.82;6.32;;;-0.90;99.90;;;;;;5008590;28;20049;-84
2022/03/04 05:42:21;;;;;;;19.92;8.32;;;-0.80;99.90;;;;;;4994107;28;20088;-83
2022/03/04 05:44:46;;;;;;;13.18;6.82;;;-0.80;99.90;;;;;;5000713;28;20046;-84
2022/03/04 05:47:12;;;;;;;15.80;8.18;;;0.50;99.90;;;;;;5013591;28;20041;-83
2022/03/04 05:49:38;;;;;;;10.32;5.93;;;-0.50;99.90;;;;;;4990175;28;20042;-84
2022/03/04 05:52:04;;;;;;;8.25;6.40;;;-1.00;99.90;;;;;;4994114;28;20126;-83
2022/03/04 05:54:30;;;;;;;10.40;8.07;;;-1.00;99.90;;;;;;4993738;28;20053;-86
2022/03/04 05:56:56;;;;;;;11.70;5.97;;;0.50;99.90;;;;;;4994476;28;20046;-83
2022/03/04 05:59:22;;;;;;;9.55;5.65;;;0.50;99.90;;;;;;5012038;28;20124;-84
2022/03/04 06:01:48;;;;;;;18.00;6.88;;;0.30;99.90;;;;;;5009244;28;20046;-83
2022/03/04 06:04:14;;;;;;;19.60;6.88;;;-0.50;99.90;;;;;;4979177;28;20112;-84
2022/03/04 06:06:40;;;;;;;7.63;5.45;;;-0.90;99.90;;;;;;4989014;28;20053;-84
2022/03/04 06:09:05;;;;;;;13.20;6.82;;;-0.90;99.90;;;;;;4999930;28;20045;-83
2022/03/04 06:11:31;;;;;;;9.77;4.93;;;-0.90;99.90;;;;;;5011165;28;20045;-85
2022/03/04 06:13:57;;;;;;;9.88;5.38;;;-0.80;99.90;;;;;;4977421;28;20076;-83
2022/03/04 06:16:22;;;;;;;7.00;6.10;;;-0.50;99.90;;;;;;5013225;28;20132;-83
2022/03/04 06:18:48;;;;;;;12.75;6.50;;;-0.20;99.90;;;;;;4998996;28;20041;-83
2022/03/04 06:21:14;;;;;;;11.65;5.45;;;0.40;99.90;;;;;;4997875;28;20045;-83
2022/03/04 06:23:40;;;;;;;13.55;6.65;;;-0.80;99.90;;;;;;4997988;28;20482;-84
2022/03/04 06:26:06;;;;;;;10.35;7.53;;;0.00;99.90;;;;;;5007117;28;20037;-83
2022/03/04 06:28:31;;;;;;;16.17;7.03;;;0.10;99.90;;;;;;5002068;28;20049;-83
2022/03/04 06:30:57;;;;;;;14.05;6.78;;;-0.80;99.90;;;;;;4999419;28;20046;-84
2022/03/04 06:33:32;;;;;;;13.93;7.10;;;-0.80;99.90;;;;;;5013563;28;20069;-83
2022/03/04 06:36:06;;;;;;;9.70;4.65;;;-0.10;99.90;;;;;;4983640;28;20136;-83
2022/03/04 06:38:34;;;;;;;11.55;5.65;;;-0.80;99.90;;;;;;4998432;28;20088;-84
2022/03/04 06:41:00;;;;;;;9.18;5.35;;;0.10;99.90;;;;;;5010825;28;20103;-83
2022/03/04 06:43:26;;;;;;;8.05;5.82;;;-0.80;99.90;;;;;;4985177;28;20077;-83
2022/03/04 06:45:52;;;;;;;10.27;5.68;;;-0.70;99.90;;;;;;4993970;28;20038;-85
2022/03/04 06:48:18;;;;;;;10.52;6.75;;;0.40;99.90;;;;;;4981284;28;20504;-84
2022/03/04 06:50:45;;;;;;;19.52;7.75;;;-0.70;99.90;;;;;;5005379;28;20046;-85
2022/03/04 06:53:11;;;;;;;15.02;6.82;;;-0.70;99.90;;;;;;4991385;28;20057;-82
2022/03/04 06:55:37;;;;;;;16.05;6.72;;;-0.70;99.90;;;;;;4999606;28;20037;-86
2022/03/04 06:58:03;;;;;;;12.55;6.22;;;-0.70;99.90;;;;;;5030184;28;20558;-81
2022/03/04 07:00:29;;;;;;;22.55;7.40;;;-0.70;99.90;;;;;;5024083;28;20400;-83
2022/03/04 07:02:55;;;;;;;13.13;6.05;;;-0.70;99.90;;;;;;4998919;28;20038;-82
2022/03/04 07:05:22;;;;;;;14.40;6.43;;;-0.70;99.90;;;;;;5017742;28;20085;-83
2022/03/04 07:07:52;;;;;;;10.13;5.72;;;-0.60;99.90;;;;;;5003145;28;20042;-82
2022/03/04 07:10:19;;;;;;;11.48;6.82;;;-0.70;99.90;;;;;;5023321;28;20053;-82
2022/03/04 07:12:45;;;;;;;9.55;6.63;;;-0.70;99.90;;;;;;4982589;28;20038;-83
2022/03/04 07:15:11;;;;;;;15.77;6.35;;;-0.70;99.90;;;;;;5028204;28;20049;-82
2022/03/04 07:17:37;;;;;;;11.85;7.18;;;-0.40;99.90;;;;;;4979942;28;20045;-83
2022/03/04 07:20:07;;;;;;;18.23;6.85;;;-0.30;99.90;;;;;;4992872;28;20045;-83
2022/03/04 07:22:35;;;;;;;16.33;7.40;;;-0.70;99.90;;;;;;4998338;28;20480;-83
2022/03/04 07:25:03;;;;;;;9.02;6.03;;;-0.70;99.90;;;;;;5007523;28;20046;-83
2022/03/04 07:27:28;;;;;;;12.48;7.57;;;-0.70;99.90;;;;;;4996336;28;20480;-83
2022/03/04 07:29:54;;;;;;;10.57;7.30;;;0.50;99.90;;;;;;4971990;28;20045;-83
2022/03/04 07:32:21;;;;;;;17.38;9.98;;;-0.60;99.90;;;;;;4995546;28;20378;-82
2022/03/04 07:34:47;;;;;;;7.22;5.93;;;-0.80;99.90;;;;;;4970237;28;20054;-82
2022/03/04 07:37:15;;;;;;;13.50;6.88;;;-0.80;99.90;;;;;;4976739;28;20041;-83
2022/03/04 07:39:41;;;;;;;14.88;7.90;;;0.50;99.90;;;;;;5003325;28;20046;-82
2022/03/04 07:42:07;;;;;;;12.57;6.25;;;-0.90;99.90;;;;;;4971146;28;20053;-82
2022/03/04 07:44:32;;;;;;;10.70;6.10;;;-0.90;99.90;;;;;;5005636;28;20041;-82
2022/03/04 07:46:58;;;;;;;8.30;5.10;;;-0.90;99.90;;;;;;5006473;28;20507;-82
2022/03/04 07:49:24;;;;;;;14.70;6.93;;;-0.10;99.90;;;;;;4978197;28;20041;-82
2022/03/04 07:51:50;;;;;;;17.58;7.20;;;-0.90;99.90;;;;;;4993030;28;20048;-82
2022/03/04 07:54:18;;;;;;;11.43;5.97;;;-0.80;99.90;;;;;;4975271;28;20057;-82
2022/03/04 07:56:44;;;;;;;13.10;6.10;;;-0.80;99.90;;;;;;5027961;28;20037;-85
2022/03/04 07:59:10;;;;;;;19.63;8.10;;;0.00;99.90;;;;;;5013322;28;20038;-82
2022/03/04 08:01:35;;;;;;;9.48;7.55;;;-0.70;99.90;;;;;;5013767;28;20441;-82
2022/03/04 08:04:01;;;;;;;14.32;7.45;;;-0.70;99.90;;;;;;4996224;28;20449;-84
2022/03/04 08:06:27;;;;;;;11.70;6.00;;;0.60;99.90;;;;;;4998210;28;22011;-84
2022/03/04 08:08:53;;;;;;;18.33;5.78;;;0.60;99.90;;;;;;4980906;28;20042;-84
2022/03/04 08:11:18;;;;;;;15.88;8.05;;;0.90;99.90;;;;;;5014908;28;20133;-84
2022/03/04 08:13:44;;;;;;;12.82;7.13;;;-0.40;99.90;;;;;;4980147;28;20046;-83
2022/03/04 08:16:10;;;;;;;13.05;5.50;;;-0.40;99.90;;;;;;4995487;28;20403;-84
2022/03/04 08:18:36;;;;;;;15.48;6.18;;;-0.30;99.90;;;;;;5014470;28;20116;-84
2022/03/04 08:21:03;;;;;;;11.43;7.20;;;-0.40;99.90;;;;;;5019904;28;20462;-84
2022/03/04 08:23:29;;;;;;;9.05;6.60;;;0.40;99.90;;;;;;4977425;28;20452;-83
2022/03/04 08:25:57;;;;;;;11.52;7.13;;;1.00;99.90;;;;;;5009255;28;20128;-83
2022/03/04 08:28:23;;;;;;;16.35;7.95;;;0.10;99.90;;;;;;4991504;28;20518;-82
2022/03/04 08:30:51;;;;;;;16.00;9.07;;;-0.40;99.90;;;;;;4995600;28;20133;-87
2022/03/04 08:33:17;;;;;;;16.08;7.15;;;-0.40;99.90;;;;;;4976627;28;20042;-82
2022/03/04 08:35:43;;;;;;;11.73;6.65;;;-0.50;99.90;;;;;;4982569;28;20183;-82
2022/03/04 08:38:08;;;;;;;14.88;7.78;;;-0.40;99.90;;;;;;4980831;28;20050;-82
2022/03/04 08:40:34;;;;;;;14.50;7.68;;;0.80;99.90;;;;;;4982925;28;20049;-82
2022/03/04 08:43:00;;;;;;;19.20;8.43;;;1.20;99.90;;;;;;4997981;28;20045;-83
2022/03/04 08:45:28;;;;;;;16.23;8.82;;;-0.10;99.90;;;;;;4998905;28;20176;-82
2022/03/04 08:47:54;;;;;;;8.75;6.03;;;-0.10;99.90;;;;;;4998504;28;20051;-83
2022/03/04 08:50:21;;;;;;;11.77;7.05;;;0.70;99.90;;;;;;4981950;28;20128;-82
2022/03/04 08:52:48;;;;;;;11.80;6.53;;;0.90;99.90;;;;;;5015367;28;20041;-82
2022/03/04 08:55:14;;;;;;;12.90;7.13;;;0.10;99.90;;;;;;4997831;28;20139;-82
2022/03/04 08:57:45;;;;;;;13.48;7.20;;;0.70;99.90;;;;;;4995111;28;20073;-82
2022/03/04 09:00:12;;;;;;;14.32;8.55;;;1.20;99.90;;;;;;5005575;28;20128;-82
2022/03/04 09:02:37;;;;;;;16.42;8.00;;;0.20;99.90;;;;;;5014891;28;20075;-82
2022/03/04 09:05:05;;;;;;;10.25;6.88;;;1.50;99.90;;;;;;5013970;28;20033;-82
2022/03/04 09:07:31;;;;;;;17.23;7.28;;;0.30;99.90;;;;;;5015129;28;20554;-82
2022/03/04 09:09:57;;;;;;;16.85;8.52;;;0.40;99.90;;;;;;5013893;28;20041;-82
2022/03/04 09:12:23;;;;;;;13.35;7.70;;;1.40;99.90;;;;;;5014030;28;20041;-82
2022/03/04 09:14:49;;;;;;;20.45;8.48;;;0.80;99.90;;;;;;5015081;28;20049;-82
2022/03/04 09:17:15;;;;;;;12.70;7.50;;;1.70;99.90;;;;;;4997629;28;20100;-82
2022/03/04 09:19:40;;;;;;;12.15;7.63;;;2.10;99.90;;;;;;4998400;28;20496;-82
2022/03/04 09:22:06;;;;;;;16.75;8.57;;;1.00;99.90;;;;;;4997379;28;20058;-82
2022/03/04 09:24:32;;;;;;;18.63;8.48;;;1.60;99.90;;;;;;5014747;28;20045;-82
2022/03/04 09:26:58;;;;;;;17.00;8.02;;;1.80;99.90;;;;;;5013903;28;20054;-82
2022/03/04 09:29:24;;;;;;;23.60;10.02;;;2.50;99.90;;;;;;5014800;28;20107;-82
2022/03/04 09:31:50;;;;;;;18.98;11.13;;;1.70;99.90;;;;;;4980277;28;20107;-82
2022/03/04 09:34:15;;;;;;;19.90;9.05;;;1.80;99.90;;;;;;5031326;28;20054;-82
2022/03/04 09:36:41;;;;;;;16.10;8.88;;;3.00;99.90;;;;;;5014816;28;20056;-82
2022/03/04 09:39:09;;;;;;;14.20;8.50;;;3.40;99.90;;;;;;5013915;28;20455;-82
2022/03/04 09:41:35;;;;;;;14.70;9.00;;;2.10;99.90;;;;;;5014514;28;20145;-82
2022/03/04 09:44:02;;;;;;;16.05;9.23;;;2.60;99.90;;;;;;4998044;28;20598;-83
2022/03/04 09:46:28;;;;;;;15.00;8.82;;;3.00;99.90;;;;;;4997994;28;20049;-82
2022/03/04 09:48:54;;;;;;;19.98;9.05;;;2.80;99.90;;;;;;4998377;28;20056;-82
2022/03/04 09:51:21;;;;;;;15.25;8.15;;;3.80;99.90;;;;;;4997673;28;20048;-82
2022/03/04 09:53:50;;;;;;;14.38;7.82;;;4.10;99.90;;;;;;4997652;28;20092;-82
2022/03/04 09:56:19;;;;;;;12.18;7.35;;;3.00;99.90;;;;;;5006788;28;20107;-82
2022/03/04 09:58:44;;;;;;;15.77;8.20;;;3.00;99.90;;;;;;5002842;28;20049;-82
2022/03/04 10:01:12;;;;;;;12.93;7.43;;;3.00;99.90;;;;;;5017796;28;20049;-82
2022/03/04 10:03:51;;;;;;;12.90;7.70;;;2.90;99.90;;;;;;4985518;28;20056;-81
2022/03/04 10:06:18;;;;;;;17.40;8.13;;;2.90;99.90;;;;;;5001194;28;20099;-82
2022/03/04 10:08:46;;;;;;;10.95;7.65;;;3.30;99.90;;;;;;4985912;28;20488;-82
2022/03/04 10:11:25;;;;;;;14.93;8.35;;;3.80;99.90;;;;;;5017387;28;20063;-82
2022/03/04 10:13:54;;;;;;;17.88;8.55;;;4.40;99.90;;;;;;5001796;28;20049;-82
2022/03/04 10:16:30;;;;;;;13.35;7.90;;;4.90;99.90;;;;;;5017172;28;20129;-82
2022/03/04 10:19:15;;;;;;;15.65;8.23;;;5.00;99.90;;;;;;5001588;28;20076;-82
2022/03/04 10:21:58;;;;;;;14.55;8.02;;;5.10;99.90;;;;;;5017412;28;20041;-82
2022/03/04 10:24:34;;;;;;;14.90;8.73;;;5.20;99.90;;;;;;4984930;28;20736;-82
2022/03/04 10:27:09;;;;;;;14.20;8.38;;;5.20;99.90;;;;;;5017789;28;20049;-82
2022/03/04 10:29:41;;;;;;;13.73;7.65;;;5.30;99.90;;;;;;5035566;28;20045;-82
2022/03/04 10:32:09;;;;;;;12.05;7.22;;;5.50;99.90;;;;;;5000251;28;20053;-83
2022/03/04 10:34:57;;;;;;;10.40;6.65;;;5.60;99.90;;;;;;5017320;28;20061;-82
2022/03/04 10:37:48;;;;;;;17.40;8.30;;;5.60;99.90;;;;;;5000204;28;20132;-82
2022/03/04 10:40:20;;;;;;;13.43;7.00;;;5.40;99.90;;;;;;5034658;28;20367;-82
2022/03/04 10:42:48;;;;;;;10.85;6.85;;;4.90;99.90;;;;;;5001110;28;20503;-82
2022/03/04 10:45:20;;;;;;;10.63;6.93;;;5.50;99.90;;;;;;5000547;28;20132;-82
2022/03/04 10:47:49;;;;;;;11.85;7.07;;;5.60;99.90;;;;;;5035134;28;20143;-82
2022/03/04 10:50:27;;;;;;;12.07;8.90;;;5.70;99.90;;;;;;5000522;28;20038;-82
2022/03/04 10:52:58;;;;;;;9.80;7.00;;;5.90;99.90;;;;;;5000876;28;20057;-81
2022/03/04 10:55:42;;;;;;;15.30;7.28;;;6.10;99.90;;;;;;5016858;28;20404;-82
2022/03/04 10:58:22;;;;;;;11.88;6.60;;;6.30;99.90;;;;;;4994785;28;20507;-86
2022/03/04 11:00:49;;;;;;;11.93;6.95;;;6.40;99.90;;;;;;5017110;28;20089;-82
2022/03/04 11:03:26;;;;;;;13.32;6.43;;;6.50;99.90;;;;;;5015788;28;20127;-82
2022/03/04 11:05:56;;;;;;;13.00;7.55;;;6.60;99.90;;;;;;5000404;28;20053;-82
2022/03/04 11:08:23;;;;;;;13.07;7.13;;;7.00;99.90;;;;;;5033869;28;20038;-82
2022/03/04 11:10:50;;;;;;;14.75;7.63;;;7.10;99.90;;;;;;5000809;28;20049;-82
2022/03/04 11:13:17;;;;;;;13.27;6.60;;;7.10;99.90;;;;;;5015937;28;20048;-82
2022/03/04 11:15:45;;;;;;;10.13;6.25;;;7.30;99.90;;;;;;5017421;28;20051;-82
2022/03/04 11:18:13;;;;;;;11.95;7.47;;;7.30;99.90;;;;;;5016184;28;20128;-85
2022/03/04 11:20:42;;;;;;;15.52;7.53;;;7.20;99.90;;;;;;5034684;28;20045;-82
2022/03/04 11:23:10;;;;;;;12.10;7.35;;;7.20;99.90;;;;;;4984486;28;20049;-82
2022/03/04 11:25:39;;;;;;;12.07;8.18;;;7.20;99.90;;;;;;5000275;28;20056;-82
2022/03/04 11:28:16;;;;;;;10.73;7.00;;;7.40;99.90;;;;;;5016026;28;20144;-82
2022/03/04 11:30:46;;;;;;;10.10;6.68;;;7.60;99.90;;;;;;5000663;28;20125;-82
2022/03/04 11:33:16;;;;;;;13.93;7.30;;;8.00;99.90;;;;;;5015695;28;20149;-86
2022/03/04 11:35:42;;;;;;;12.32;6.65;;;8.30;99.90;;;;;;5000298;28;20448;-82
2022/03/04 11:38:11;;;;;;;8.43;6.07;;;8.40;99.90;;;;;;5016214;28;20128;-82
2022/03/04 11:40:48;;;;;;;11.60;6.57;;;8.50;99.90;;;;;;4999892;28;20045;-82
2022/03/04 11:43:18;;;;;;;10.33;7.00;;;8.50;99.90;;;;;;4999782;28;20059;-84
2022/03/04 11:45:44;;;;;;;11.23;6.13;;;8.60;99.90;;;;;;5016579;28;20132;-82
2022/03/04 11:48:13;;;;;;;12.60;7.63;;;8.70;99.90;;;;;;4999986;28;20099;-82
2022/03/04 11:50:45;;;;;;;12.07;6.50;;;8.80;99.90;;;;;;4999476;28;20058;-82
2022/03/04 11:53:17;;;;;;;9.55;6.30;;;9.40;99.90;;;;;;5016196;28;20045;-82
2022/03/04 11:56:10;;;;;;;7.82;5.72;;;9.50;99.90;;;;;;5000164;28;20408;-83
2022/03/04 11:58:54;;;;;;;8.82;5.63;;;9.40;99.90;;;;;;5015388;28;20049;-82
2022/03/04 12:01:29;;;;;;;10.23;5.93;;;9.30;99.90;;;;;;5014785;28;20041;-83
2022/03/04 12:04:05;;;;;;;14.63;6.47;;;9.20;99.90;;;;;;5016465;28;20046;-82
2022/03/04 12:06:31;;;;;;;8.68;6.15;;;9.30;99.70;;;;;;5015214;28;20088;-82
2022/03/04 12:09:17;;;;;;;9.75;6.70;;;9.40;99.90;;;;;;5016402;28;20053;-82
2022/03/04 12:12:18;;;;;;;11.75;6.50;;;9.50;99.90;;;;;;5001703;28;20048;-82
2022/03/04 12:14:52;;;;;;;10.80;6.32;;;10.00;98.90;;;;;;5015457;28;20052;-82
2022/03/04 12:17:19;;;;;;;9.40;5.93;;;10.00;99.90;;;;;;4999037;28;20053;-87
2022/03/04 12:19:45;;;;;;;8.73;5.40;;;10.10;99.90;;;;;;4999560;28;20400;-82
2022/03/04 12:22:13;;;;;;;9.48;5.45;;;10.20;99.70;;;;;;5015070;28;20041;-82
2022/03/04 12:24:50;;;;;;;8.65;5.38;;;10.10;99.90;;;;;;5015242;28;20228;-82
2022/03/04 12:27:35;;;;;;;9.38;5.22;;;10.10;99.90;;;;;;5015321;28;20037;-82
2022/03/04 12:30:19;;;;;;;11.68;5.45;;;10.10;96.60;;;;;;4999234;28;20499;-82
2022/03/04 12:32:53;;;;;;;11.38;5.95;;;10.20;98.90;;;;;;5026786;28;20049;-83
2022/03/04 12:35:21;;;;;;;7.93;5.18;;;10.40;99.90;;;;;;4979919;28;20053;-83
2022/03/04 12:37:48;;;;;;;13.77;5.63;;;10.70;99.50;;;;;;4995793;28;20053;-83
2022/03/04 12:40:14;;;;;;;7.05;4.20;;;11.00;98.30;;;;;;5013284;28;20045;-84
2022/03/04 12:42:49;;;;;;;;;;;11.00;97.60;;;;;;4959751;28;20052;-83
2022/03/04 12:45:15;;;;;;;7.20;4.15;;;11.20;88.40;;;;;;5013643;28;20361;-82
2022/03/04 12:47:41;;;;;;;6.43;4.70;;;11.20;99.10;;;;;;4983608;28;20042;-83
2022/03/04 12:50:07;;;;;;;6.03;4.00;;;11.20;98.60;;;;;;4979694;28;20081;-83